sensor_id;sensor_type;location;lat;lon;timestamp;temperature;humidity
7496;DHT22;3789;47.064;15.482;2023-07-29T00:00:26;19.70;99.90
7496;DHT22;3789;47.064;15.482;2023-07-29T00:02:56;19.60;99.90
7496;DHT22;3789;47.064;15.482;2023-07-29T00:08:50;19.60;99.90
7496;DHT22;3789;47.064;15.482;2023-07-29T00:11:28;19.50;99.90
7496;DHT22;3789;47.064;15.482;2023-07-29T00:13:58;19.50;99.90
7496;DHT22;3789;47.064;15.482;2023-07-29T00:16:27;19.40;99.90
7496;DHT22;3789;47.064;15.482;2023-07-29T00:18:58;19.30;99.90
7496;DHT22;3789;47.064;15.482;2023-07-29T00:21:27;19.30;99.90
7496;DHT22;3789;47.064;15.482;2023-07-29T00:23:57;19.40;99.90
7496;DHT22;3789;47.064;15.482;2023-07-29T00:26:26;19.50;99.90
7496;DHT22;3789;47.064;15.482;2023-07-29T00:29:00;19.40;99.90
7496;DHT22;3789;47.064;15.482;2023-07-29T00:31:37;19.40;99.90
7496;DHT22;3789;47.064;15.482;2023-07-29T00:34:07;19.40;99.90
7496;DHT22;3789;47.064;15.482;2023-07-29T00:36:35;19.10;99.90
7496;DHT22;3789;47.064;15.482;2023-07-29T00:39:07;19.10;99.90
7496;DHT22;3789;47.064;15.482;2023-07-29T00:41:37;19.10;99.90
7496;DHT22;3789;47.064;15.482;2023-07-29T00:44:06;19.20;99.90
7496;DHT22;3789;47.064;15.482;2023-07-29T00:46:38;19.30;99.90
7496;DHT22;3789;47.064;15.482;2023-07-29T00:49:08;19.30;99.90
7496;DHT22;3789;47.064;15.482;2023-07-29T00:51:37;19.20;99.90
7496;DHT22;3789;47.064;15.482;2023-07-29T00:54:06;19.00;99.90
7496;DHT22;3789;47.064;15.482;2023-07-29T00:56:47;18.70;99.90
7496;DHT22;3789;47.064;15.482;2023-07-29T00:59:19;18.70;99.90
7496;DHT22;3789;47.064;15.482;2023-07-29T01:01:52;18.50;99.90
7496;DHT22;3789;47.064;15.482;2023-07-29T01:04:21;18.50;99.90
7496;DHT22;3789;47.064;15.482;2023-07-29T01:10:01;18.60;99.90
7496;DHT22;3789;47.064;15.482;2023-07-29T01:13:35;18.60;99.90
7496;DHT22;3789;47.064;15.482;2023-07-29T01:16:44;18.50;99.90
7496;DHT22;3789;47.064;15.482;2023-07-29T01:20:06;18.60;99.90
7496;DHT22;3789;47.064;15.482;2023-07-29T01:22:41;18.70;99.90
7496;DHT22;3789;47.064;15.482;2023-07-29T01:25:29;18.70;99.90
7496;DHT22;3789;47.064;15.482;2023-07-29T01:27:58;18.80;99.90
7496;DHT22;3789;47.064;15.482;2023-07-29T01:30:45;18.80;99.90
7496;DHT22;3789;47.064;15.482;2023-07-29T01:33:38;18.90;99.90
7496;DHT22;3789;47.064;15.482;2023-07-29T01:36:22;18.90;99.90
7496;DHT22;3789;47.064;15.482;2023-07-29T01:38:56;18.90;99.90
7496;DHT22;3789;47.064;15.482;2023-07-29T01:41:31;18.80;99.90
7496;DHT22;3789;47.064;15.482;2023-07-29T01:44:04;18.90;99.90
7496;DHT22;3789;47.064;15.482;2023-07-29T01:46:36;18.90;99.90
7496;DHT22;3789;47.064;15.482;2023-07-29T01:49:07;18.90;99.90
7496;DHT22;3789;47.064;15.482;2023-07-29T01:51:44;18.80;99.90
7496;DHT22;3789;47.064;15.482;2023-07-29T01:54:13;18.70;99.90
7496;DHT22;3789;47.064;15.482;2023-07-29T01:56:53;18.60;99.90
7496;DHT22;3789;47.064;15.482;2023-07-29T01:59:59;18.50;99.90
7496;DHT22;3789;47.064;15.482;2023-07-29T02:02:56;18.50;99.90
7496;DHT22;3789;47.064;15.482;2023-07-29T02:05:29;18.40;99.90
7496;DHT22;3789;47.064;15.482;2023-07-29T02:08:04;18.40;99.90
7496;DHT22;3789;47.064;15.482;2023-07-29T02:10:41;18.30;99.90
7496;DHT22;3789;47.064;15.482;2023-07-29T02:13:24;18.20;99.90
7496;DHT22;3789;47.064;15.482;2023-07-29T02:16:19;18.00;99.90
7496;DHT22;3789;47.064;15.482;2023-07-29T02:19:05;18.10;99.90
7496;DHT22;3789;47.064;15.482;2023-07-29T02:21:45;18.20;99.90
7496;DHT22;3789;47.064;15.482;2023-07-29T02:24:22;18.30;99.90
7496;DHT22;3789;47.064;15.482;2023-07-29T02:26:59;18.20;99.90
7496;DHT22;3789;47.064;15.482;2023-07-29T02:29:37;18.10;99.90
7496;DHT22;3789;47.064;15.482;2023-07-29T02:32:07;18.00;99.90
7496;DHT22;3789;47.064;15.482;2023-07-29T02:34:37;18.10;99.90
7496;DHT22;3789;47.064;15.482;2023-07-29T02:37:07;18.00;99.90
7496;DHT22;3789;47.064;15.482;2023-07-29T02:39:39;18.00;99.90
7496;DHT22;3789;47.064;15.482;2023-07-29T02:42:18;18.20;99.90
7496;DHT22;3789;47.064;15.482;2023-07-29T02:44:47;18.20;99.90
7496;DHT22;3789;47.064;15.482;2023-07-29T02:47:19;18.20;99.90
7496;DHT22;3789;47.064;15.482;2023-07-29T02:49:56;18.10;99.90
7496;DHT22;3789;47.064;15.482;2023-07-29T02:52:26;18.00;99.90
7496;DHT22;3789;47.064;15.482;2023-07-29T02:54:56;17.90;99.90
7496;DHT22;3789;47.064;15.482;2023-07-29T02:57:25;18.00;99.90
7496;DHT22;3789;47.064;15.482;2023-07-29T03:00:03;18.20;99.90
7496;DHT22;3789;47.064;15.482;2023-07-29T03:02:45;18.10;99.90
7496;DHT22;3789;47.064;15.482;2023-07-29T03:05:20;18.00;99.90
7496;DHT22;3789;47.064;15.482;2023-07-29T03:07:50;18.00;99.90
7496;DHT22;3789;47.064;15.482;2023-07-29T03:10:19;18.10;99.90
7496;DHT22;3789;47.064;15.482;2023-07-29T03:12:48;18.10;99.90
7496;DHT22;3789;47.064;15.482;2023-07-29T03:15:22;18.00;99.90
7496;DHT22;3789;47.064;15.482;2023-07-29T03:17:57;18.00;99.90
7496;DHT22;3789;47.064;15.482;2023-07-29T03:20:26;18.00;99.90
7496;DHT22;3789;47.064;15.482;2023-07-29T03:22:57;18.00;99.90
7496;DHT22;3789;47.064;15.482;2023-07-29T03:25:25;18.10;99.90
7496;DHT22;3789;47.064;15.482;2023-07-29T03:27:54;18.10;99.90
7496;DHT22;3789;47.064;15.482;2023-07-29T03:30:23;18.10;99.90
7496;DHT22;3789;47.064;15.482;2023-07-29T03:32:52;18.10;99.90
7496;DHT22;3789;47.064;15.482;2023-07-29T03:35:23;18.10;99.90
7496;DHT22;3789;47.064;15.482;2023-07-29T03:37:51;18.20;99.90
7496;DHT22;3789;47.064;15.482;2023-07-29T03:40:20;18.10;99.90
7496;DHT22;3789;47.064;15.482;2023-07-29T03:42:55;18.10;99.90
7496;DHT22;3789;47.064;15.482;2023-07-29T03:45:25;18.10;99.90
7496;DHT22;3789;47.064;15.482;2023-07-29T03:48:02;18.00;99.90
7496;DHT22;3789;47.064;15.482;2023-07-29T03:50:34;18.30;99.90
7496;DHT22;3789;47.064;15.482;2023-07-29T03:53:11;18.20;99.90
7496;DHT22;3789;47.064;15.482;2023-07-29T03:55:40;18.20;99.90
7496;DHT22;3789;47.064;15.482;2023-07-29T03:58:09;18.20;99.90
7496;DHT22;3789;47.064;15.482;2023-07-29T04:00:40;18.10;99.90
7496;DHT22;3789;47.064;15.482;2023-07-29T04:03:19;18.30;99.90
7496;DHT22;3789;47.064;15.482;2023-07-29T04:05:48;18.30;99.90
7496;DHT22;3789;47.064;15.482;2023-07-29T04:08:19;18.30;99.90
7496;DHT22;3789;47.064;15.482;2023-07-29T04:10:56;18.30;99.90
7496;DHT22;3789;47.064;15.482;2023-07-29T04:13:24;18.30;99.90
7496;DHT22;3789;47.064;15.482;2023-07-29T04:15:53;18.20;99.90
7496;DHT22;3789;47.064;15.482;2023-07-29T04:18:23;18.20;99.90
7496;DHT22;3789;47.064;15.482;2023-07-29T04:20:52;18.30;99.90
7496;DHT22;3789;47.064;15.482;2023-07-29T04:23:22;18.30;99.90
7496;DHT22;3789;47.064;15.482;2023-07-29T04:25:51;18.30;99.90
7496;DHT22;3789;47.064;15.482;2023-07-29T04:28:19;18.30;99.90
7496;DHT22;3789;47.064;15.482;2023-07-29T04:30:49;18.30;99.90
7496;DHT22;3789;47.064;15.482;2023-07-29T04:33:22;18.30;99.90
7496;DHT22;3789;47.064;15.482;2023-07-29T04:35:49;18.30;99.90
7496;DHT22;3789;47.064;15.482;2023-07-29T04:38:19;18.30;99.90
7496;DHT22;3789;47.064;15.482;2023-07-29T04:40:50;18.40;99.90
7496;DHT22;3789;47.064;15.482;2023-07-29T04:43:19;18.10;99.90
7496;DHT22;3789;47.064;15.482;2023-07-29T04:45:50;17.90;99.90
7496;DHT22;3789;47.064;15.482;2023-07-29T04:48:20;17.90;99.90
7496;DHT22;3789;47.064;15.482;2023-07-29T04:50:49;18.00;99.90
7496;DHT22;3789;47.064;15.482;2023-07-29T04:53:25;18.00;99.90
7496;DHT22;3789;47.064;15.482;2023-07-29T04:55:53;18.20;99.90
7496;DHT22;3789;47.064;15.482;2023-07-29T04:58:22;18.20;99.90
7496;DHT22;3789;47.064;15.482;2023-07-29T05:00:51;18.30;99.90
7496;DHT22;3789;47.064;15.482;2023-07-29T05:03:18;18.50;99.90
7496;DHT22;3789;47.064;15.482;2023-07-29T05:05:50;18.80;99.90
7496;DHT22;3789;47.064;15.482;2023-07-29T05:08:46;18.80;99.90
7496;DHT22;3789;47.064;15.482;2023-07-29T05:11:18;18.90;99.90
7496;DHT22;3789;47.064;15.482;2023-07-29T05:13:45;19.00;99.90
7496;DHT22;3789;47.064;15.482;2023-07-29T05:16:13;19.20;99.90
7496;DHT22;3789;47.064;15.482;2023-07-29T05:18:44;19.30;99.90
7496;DHT22;3789;47.064;15.482;2023-07-29T05:21:13;19.40;99.90
7496;DHT22;3789;47.064;15.482;2023-07-29T05:23:44;19.30;99.90
7496;DHT22;3789;47.064;15.482;2023-07-29T05:26:16;19.30;99.90
7496;DHT22;3789;47.064;15.482;2023-07-29T05:28:53;19.30;99.90
7496;DHT22;3789;47.064;15.482;2023-07-29T05:31:22;19.20;99.90
7496;DHT22;3789;47.064;15.482;2023-07-29T05:33:53;19.20;99.90
7496;DHT22;3789;47.064;15.482;2023-07-29T05:36:26;19.20;99.90
7496;DHT22;3789;47.064;15.482;2023-07-29T05:38:58;19.10;99.90
7496;DHT22;3789;47.064;15.482;2023-07-29T05:41:32;19.10;99.90
7496;DHT22;3789;47.064;15.482;2023-07-29T05:44:06;19.00;99.90
7496;DHT22;3789;47.064;15.482;2023-07-29T05:46:39;18.90;99.90
7496;DHT22;3789;47.064;15.482;2023-07-29T05:49:09;18.80;99.90
7496;DHT22;3789;47.064;15.482;2023-07-29T05:51:40;18.80;99.90
7496;DHT22;3789;47.064;15.482;2023-07-29T05:54:11;18.90;99.90
7496;DHT22;3789;47.064;15.482;2023-07-29T05:56:41;18.90;99.90
7496;DHT22;3789;47.064;15.482;2023-07-29T05:59:09;18.90;99.90
7496;DHT22;3789;47.064;15.482;2023-07-29T06:01:40;18.90;99.90
7496;DHT22;3789;47.064;15.482;2023-07-29T06:04:08;18.80;99.90
7496;DHT22;3789;47.064;15.482;2023-07-29T06:06:44;18.70;99.90
7496;DHT22;3789;47.064;15.482;2023-07-29T06:09:23;18.70;99.90
7496;DHT22;3789;47.064;15.482;2023-07-29T06:11:56;18.70;99.90
7496;DHT22;3789;47.064;15.482;2023-07-29T06:14:26;18.80;99.90
7496;DHT22;3789;47.064;15.482;2023-07-29T06:16:55;18.70;99.90
7496;DHT22;3789;47.064;15.482;2023-07-29T06:19:24;18.80;99.90
7496;DHT22;3789;47.064;15.482;2023-07-29T06:21:58;18.90;99.90
7496;DHT22;3789;47.064;15.482;2023-07-29T06:24:26;19.10;99.90
7496;DHT22;3789;47.064;15.482;2023-07-29T06:26:58;19.20;99.90
7496;DHT22;3789;47.064;15.482;2023-07-29T06:29:34;19.40;99.90
7496;DHT22;3789;47.064;15.482;2023-07-29T06:32:02;19.60;99.90
7496;DHT22;3789;47.064;15.482;2023-07-29T06:34:32;19.70;99.90
7496;DHT22;3789;47.064;15.482;2023-07-29T06:37:01;19.80;99.90
7496;DHT22;3789;47.064;15.482;2023-07-29T06:39:39;19.90;99.90
7496;DHT22;3789;47.064;15.482;2023-07-29T06:42:09;20.00;99.90
7496;DHT22;3789;47.064;15.482;2023-07-29T06:44:42;20.30;99.90
7496;DHT22;3789;47.064;15.482;2023-07-29T06:47:12;20.50;99.90
7496;DHT22;3789;47.064;15.482;2023-07-29T06:49:43;20.40;99.90
7496;DHT22;3789;47.064;15.482;2023-07-29T06:52:11;20.40;99.90
7496;DHT22;3789;47.064;15.482;2023-07-29T06:54:41;20.70;99.90
7496;DHT22;3789;47.064;15.482;2023-07-29T06:57:10;20.90;99.90
7496;DHT22;3789;47.064;15.482;2023-07-29T06:59:40;21.00;99.90
7496;DHT22;3789;47.064;15.482;2023-07-29T07:02:10;21.10;99.90
7496;DHT22;3789;47.064;15.482;2023-07-29T07:04:41;21.20;99.90
7496;DHT22;3789;47.064;15.482;2023-07-29T07:07:09;21.20;99.90
7496;DHT22;3789;47.064;15.482;2023-07-29T07:09:38;21.20;99.90
7496;DHT22;3789;47.064;15.482;2023-07-29T07:12:10;21.40;99.90
7496;DHT22;3789;47.064;15.482;2023-07-29T07:14:47;21.60;99.90
7496;DHT22;3789;47.064;15.482;2023-07-29T07:17:16;21.90;99.90
7496;DHT22;3789;47.064;15.482;2023-07-29T07:19:45;22.20;99.90
7496;DHT22;3789;47.064;15.482;2023-07-29T07:22:19;22.30;99.90
7496;DHT22;3789;47.064;15.482;2023-07-29T07:24:47;22.50;99.90
7496;DHT22;3789;47.064;15.482;2023-07-29T07:27:20;22.80;99.90
7496;DHT22;3789;47.064;15.482;2023-07-29T07:29:49;23.20;99.90
7496;DHT22;3789;47.064;15.482;2023-07-29T07:32:20;23.70;99.90
7496;DHT22;3789;47.064;15.482;2023-07-29T07:35:03;24.10;99.90
7496;DHT22;3789;47.064;15.482;2023-07-29T07:37:38;24.40;99.90
7496;DHT22;3789;47.064;15.482;2023-07-29T07:40:15;24.20;99.90
7496;DHT22;3789;47.064;15.482;2023-07-29T07:42:45;24.00;99.90
7496;DHT22;3789;47.064;15.482;2023-07-29T07:45:16;23.90;99.90
7496;DHT22;3789;47.064;15.482;2023-07-29T07:47:57;23.70;99.90
7496;DHT22;3789;47.064;15.482;2023-07-29T07:50:30;24.00;99.90
7496;DHT22;3789;47.064;15.482;2023-07-29T07:53:00;24.20;99.90
7496;DHT22;3789;47.064;15.482;2023-07-29T07:55:32;24.40;99.90
7496;DHT22;3789;47.064;15.482;2023-07-29T07:58:08;24.60;99.90
7496;DHT22;3789;47.064;15.482;2023-07-29T08:00:40;24.70;99.90
7496;DHT22;3789;47.064;15.482;2023-07-29T08:03:12;24.80;99.90
7496;DHT22;3789;47.064;15.482;2023-07-29T08:05:40;24.80;99.90
7496;DHT22;3789;47.064;15.482;2023-07-29T08:08:11;24.90;99.90
7496;DHT22;3789;47.064;15.482;2023-07-29T08:10:47;25.00;99.90
7496;DHT22;3789;47.064;15.482;2023-07-29T08:13:17;25.20;99.90
7496;DHT22;3789;47.064;15.482;2023-07-29T08:15:50;25.50;99.90
7496;DHT22;3789;47.064;15.482;2023-07-29T08:18:24;25.80;99.90
7496;DHT22;3789;47.064;15.482;2023-07-29T08:21:00;26.10;99.90
7496;DHT22;3789;47.064;15.482;2023-07-29T08:23:35;26.30;99.90
7496;DHT22;3789;47.064;15.482;2023-07-29T08:26:07;26.30;99.90
7496;DHT22;3789;47.064;15.482;2023-07-29T08:28:38;26.30;99.90
7496;DHT22;3789;47.064;15.482;2023-07-29T08:31:08;26.00;99.90
7496;DHT22;3789;47.064;15.482;2023-07-29T08:33:44;26.00;99.90
7496;DHT22;3789;47.064;15.482;2023-07-29T08:36:13;26.30;99.90
7496;DHT22;3789;47.064;15.482;2023-07-29T08:38:45;26.40;99.90
7496;DHT22;3789;47.064;15.482;2023-07-29T08:41:29;26.70;99.90
7496;DHT22;3789;47.064;15.482;2023-07-29T08:46:40;26.90;99.90
7496;DHT22;3789;47.064;15.482;2023-07-29T08:49:08;26.70;99.90
7496;DHT22;3789;47.064;15.482;2023-07-29T08:51:37;26.60;99.90
7496;DHT22;3789;47.064;15.482;2023-07-29T08:54:07;26.60;99.90
7496;DHT22;3789;47.064;15.482;2023-07-29T08:56:43;26.90;99.90
7496;DHT22;3789;47.064;15.482;2023-07-29T08:59:22;27.20;99.90
7496;DHT22;3789;47.064;15.482;2023-07-29T09:01:55;27.30;99.90
7496;DHT22;3789;47.064;15.482;2023-07-29T09:04:25;27.50;99.90
7496;DHT22;3789;47.064;15.482;2023-07-29T09:06:55;27.30;99.90
7496;DHT22;3789;47.064;15.482;2023-07-29T09:09:27;27.20;99.90
7496;DHT22;3789;47.064;15.482;2023-07-29T09:11:57;27.50;99.90
7496;DHT22;3789;47.064;15.482;2023-07-29T09:14:28;27.60;99.90
7496;DHT22;3789;47.064;15.482;2023-07-29T09:16:59;27.30;99.90
7496;DHT22;3789;47.064;15.482;2023-07-29T09:19:32;27.30;99.90
7496;DHT22;3789;47.064;15.482;2023-07-29T09:22:02;27.30;99.90
7496;DHT22;3789;47.064;15.482;2023-07-29T09:24:37;27.40;99.90
7496;DHT22;3789;47.064;15.482;2023-07-29T09:27:12;27.40;99.90
7496;DHT22;3789;47.064;15.482;2023-07-29T09:29:58;27.20;99.90
7496;DHT22;3789;47.064;15.482;2023-07-29T09:32:30;27.30;99.90
7496;DHT22;3789;47.064;15.482;2023-07-29T09:35:12;27.30;99.90
7496;DHT22;3789;47.064;15.482;2023-07-29T09:37:41;27.40;99.90
7496;DHT22;3789;47.064;15.482;2023-07-29T09:40:14;27.50;99.90
7496;DHT22;3789;47.064;15.482;2023-07-29T09:42:52;27.60;99.90
7496;DHT22;3789;47.064;15.482;2023-07-29T09:45:26;27.60;99.90
7496;DHT22;3789;47.064;15.482;2023-07-29T09:48:01;27.70;99.90
7496;DHT22;3789;47.064;15.482;2023-07-29T09:50:43;27.70;99.90
7496;DHT22;3789;47.064;15.482;2023-07-29T09:53:12;27.90;99.90
7496;DHT22;3789;47.064;15.482;2023-07-29T09:55:47;27.90;99.90
7496;DHT22;3789;47.064;15.482;2023-07-29T09:58:27;27.90;99.90
7496;DHT22;3789;47.064;15.482;2023-07-29T10:01:06;27.90;99.90
7496;DHT22;3789;47.064;15.482;2023-07-29T10:03:36;27.90;99.90
7496;DHT22;3789;47.064;15.482;2023-07-29T10:06:16;28.00;99.90
7496;DHT22;3789;47.064;15.482;2023-07-29T10:08:50;28.10;99.90
7496;DHT22;3789;47.064;15.482;2023-07-29T10:11:21;28.20;99.90
7496;DHT22;3789;47.064;15.482;2023-07-29T10:13:50;28.00;99.90
7496;DHT22;3789;47.064;15.482;2023-07-29T10:16:36;28.00;99.90
7496;DHT22;3789;47.064;15.482;2023-07-29T10:19:07;28.00;99.90
7496;DHT22;3789;47.064;15.482;2023-07-29T10:21:41;28.00;99.90
7496;DHT22;3789;47.064;15.482;2023-07-29T10:24:20;28.00;99.90
7496;DHT22;3789;47.064;15.482;2023-07-29T10:27:01;27.60;99.90
7496;DHT22;3789;47.064;15.482;2023-07-29T10:29:39;27.00;99.90
7496;DHT22;3789;47.064;15.482;2023-07-29T10:32:11;26.90;99.90
7496;DHT22;3789;47.064;15.482;2023-07-29T10:34:43;26.70;99.90
7496;DHT22;3789;47.064;15.482;2023-07-29T10:37:14;27.00;99.90
7496;DHT22;3789;47.064;15.482;2023-07-29T10:39:52;27.30;99.90
7496;DHT22;3789;47.064;15.482;2023-07-29T10:42:21;27.80;99.90
7496;DHT22;3789;47.064;15.482;2023-07-29T10:44:52;27.90;99.90
7496;DHT22;3789;47.064;15.482;2023-07-29T10:47:24;28.20;99.90
7496;DHT22;3789;47.064;15.482;2023-07-29T10:50:20;28.30;99.90
7496;DHT22;3789;47.064;15.482;2023-07-29T10:52:50;28.00;99.90
7496;DHT22;3789;47.064;15.482;2023-07-29T10:55:39;28.00;99.90
7496;DHT22;3789;47.064;15.482;2023-07-29T10:58:15;28.10;99.90
7496;DHT22;3789;47.064;15.482;2023-07-29T11:00:50;27.90;99.90
7496;DHT22;3789;47.064;15.482;2023-07-29T11:03:20;27.70;99.90
7496;DHT22;3789;47.064;15.482;2023-07-29T11:05:53;27.80;99.90
7496;DHT22;3789;47.064;15.482;2023-07-29T11:08:32;27.80;99.90
7496;DHT22;3789;47.064;15.482;2023-07-29T11:11:11;28.00;99.90
7496;DHT22;3789;47.064;15.482;2023-07-29T11:13:43;28.00;99.90
7496;DHT22;3789;47.064;15.482;2023-07-29T11:16:21;28.20;99.90
7496;DHT22;3789;47.064;15.482;2023-07-29T11:18:54;28.10;99.90
7496;DHT22;3789;47.064;15.482;2023-07-29T11:21:25;28.10;99.90
7496;DHT22;3789;47.064;15.482;2023-07-29T11:24:02;28.20;99.90
7496;DHT22;3789;47.064;15.482;2023-07-29T11:26:37;28.40;99.90
7496;DHT22;3789;47.064;15.482;2023-07-29T11:29:10;28.40;99.90
7496;DHT22;3789;47.064;15.482;2023-07-29T11:31:47;28.50;99.90
7496;DHT22;3789;47.064;15.482;2023-07-29T11:34:32;28.60;99.90
7496;DHT22;3789;47.064;15.482;2023-07-29T11:37:00;28.50;99.90
7496;DHT22;3789;47.064;15.482;2023-07-29T11:39:29;28.60;99.90
7496;DHT22;3789;47.064;15.482;2023-07-29T11:41:59;28.50;99.90
7496;DHT22;3789;47.064;15.482;2023-07-29T11:44:37;28.60;99.90
7496;DHT22;3789;47.064;15.482;2023-07-29T11:47:11;28.70;99.90
7496;DHT22;3789;47.064;15.482;2023-07-29T11:49:40;28.60;99.90
7496;DHT22;3789;47.064;15.482;2023-07-29T11:52:12;28.50;99.90
7496;DHT22;3789;47.064;15.482;2023-07-29T11:54:43;28.50;99.90
7496;DHT22;3789;47.064;15.482;2023-07-29T11:57:13;28.50;99.90
7496;DHT22;3789;47.064;15.482;2023-07-29T11:59:45;28.50;99.90
7496;DHT22;3789;47.064;15.482;2023-07-29T12:02:23;28.60;99.90
7496;DHT22;3789;47.064;15.482;2023-07-29T12:05:07;28.70;99.90
7496;DHT22;3789;47.064;15.482;2023-07-29T12:07:50;28.90;99.90
7496;DHT22;3789;47.064;15.482;2023-07-29T12:10:20;29.00;99.90
7496;DHT22;3789;47.064;15.482;2023-07-29T12:12:50;28.70;99.90
7496;DHT22;3789;47.064;15.482;2023-07-29T12:15:33;28.60;99.90
7496;DHT22;3789;47.064;15.482;2023-07-29T12:18:03;28.70;99.90
7496;DHT22;3789;47.064;15.482;2023-07-29T12:20:32;28.80;99.90
7496;DHT22;3789;47.064;15.482;2023-07-29T12:23:09;28.80;99.90
7496;DHT22;3789;47.064;15.482;2023-07-29T12:25:38;28.90;99.90
7496;DHT22;3789;47.064;15.482;2023-07-29T12:28:22;29.00;99.90
7496;DHT22;3789;47.064;15.482;2023-07-29T12:30:54;29.10;99.90
7496;DHT22;3789;47.064;15.482;2023-07-29T12:33:37;29.00;99.90
7496;DHT22;3789;47.064;15.482;2023-07-29T12:36:14;28.90;99.90
7496;DHT22;3789;47.064;15.482;2023-07-29T12:38:47;29.10;99.90
7496;DHT22;3789;47.064;15.482;2023-07-29T12:41:27;29.10;99.90
7496;DHT22;3789;47.064;15.482;2023-07-29T12:43:57;29.20;99.90
7496;DHT22;3789;47.064;15.482;2023-07-29T12:46:38;29.40;99.90
7496;DHT22;3789;47.064;15.482;2023-07-29T12:49:08;29.40;99.90
7496;DHT22;3789;47.064;15.482;2023-07-29T12:51:36;29.10;99.90
7496;DHT22;3789;47.064;15.482;2023-07-29T12:54:09;29.10;99.90
7496;DHT22;3789;47.064;15.482;2023-07-29T12:56:38;29.20;99.90
7496;DHT22;3789;47.064;15.482;2023-07-29T12:59:16;29.00;99.90
7496;DHT22;3789;47.064;15.482;2023-07-29T13:01:55;28.90;99.90
7496;DHT22;3789;47.064;15.482;2023-07-29T13:04:36;28.80;99.90
7496;DHT22;3789;47.064;15.482;2023-07-29T13:07:05;28.60;99.90
7496;DHT22;3789;47.064;15.482;2023-07-29T13:09:37;28.50;99.90
7496;DHT22;3789;47.064;15.482;2023-07-29T13:12:06;28.40;99.90
7496;DHT22;3789;47.064;15.482;2023-07-29T13:14:36;28.10;99.90
7496;DHT22;3789;47.064;15.482;2023-07-29T13:17:12;27.90;99.90
7496;DHT22;3789;47.064;15.482;2023-07-29T13:19:43;27.70;99.90
7496;DHT22;3789;47.064;15.482;2023-07-29T13:22:12;27.80;99.90
7496;DHT22;3789;47.064;15.482;2023-07-29T13:24:49;27.70;99.90
7496;DHT22;3789;47.064;15.482;2023-07-29T13:27:26;27.50;99.90
7496;DHT22;3789;47.064;15.482;2023-07-29T13:29:55;27.30;99.90
7496;DHT22;3789;47.064;15.482;2023-07-29T13:32:33;27.00;99.90
7496;DHT22;3789;47.064;15.482;2023-07-29T13:35:01;26.80;99.90
7496;DHT22;3789;47.064;15.482;2023-07-29T13:37:29;26.70;99.90
7496;DHT22;3789;47.064;15.482;2023-07-29T13:39:58;26.40;99.90
7496;DHT22;3789;47.064;15.482;2023-07-29T13:42:27;26.30;99.90
7496;DHT22;3789;47.064;15.482;2023-07-29T13:45:01;26.10;99.90
7496;DHT22;3789;47.064;15.482;2023-07-29T13:47:34;25.80;99.90
7496;DHT22;3789;47.064;15.482;2023-07-29T13:50:11;25.60;99.90
7496;DHT22;3789;47.064;15.482;2023-07-29T13:52:44;25.90;99.90
7496;DHT22;3789;47.064;15.482;2023-07-29T13:55:13;26.00;99.90
7496;DHT22;3789;47.064;15.482;2023-07-29T13:57:43;26.20;99.90
7496;DHT22;3789;47.064;15.482;2023-07-29T14:00:20;26.20;99.90
7496;DHT22;3789;47.064;15.482;2023-07-29T14:02:49;26.40;99.90
7496;DHT22;3789;47.064;15.482;2023-07-29T14:05:20;26.50;99.90
7496;DHT22;3789;47.064;15.482;2023-07-29T14:07:57;26.70;99.90
7496;DHT22;3789;47.064;15.482;2023-07-29T14:10:26;26.90;99.90
7496;DHT22;3789;47.064;15.482;2023-07-29T14:13:04;26.70;99.90
7496;DHT22;3789;47.064;15.482;2023-07-29T14:15:34;26.50;99.90
7496;DHT22;3789;47.064;15.482;2023-07-29T14:18:05;26.30;99.90
7496;DHT22;3789;47.064;15.482;2023-07-29T14:20:35;26.30;99.90
7496;DHT22;3789;47.064;15.482;2023-07-29T14:23:11;26.10;99.90
7496;DHT22;3789;47.064;15.482;2023-07-29T14:25:42;26.10;99.90
7496;DHT22;3789;47.064;15.482;2023-07-29T14:28:22;26.30;99.90
7496;DHT22;3789;47.064;15.482;2023-07-29T14:31:04;26.60;99.90
7496;DHT22;3789;47.064;15.482;2023-07-29T14:33:33;26.70;99.90
7496;DHT22;3789;47.064;15.482;2023-07-29T14:36:10;26.60;99.90
7496;DHT22;3789;47.064;15.482;2023-07-29T14:38:45;26.50;99.90
7496;DHT22;3789;47.064;15.482;2023-07-29T14:41:16;26.50;99.90
7496;DHT22;3789;47.064;15.482;2023-07-29T14:43:46;26.60;99.90
7496;DHT22;3789;47.064;15.482;2023-07-29T14:46:18;26.80;99.90
7496;DHT22;3789;47.064;15.482;2023-07-29T14:48:48;26.90;99.90
7496;DHT22;3789;47.064;15.482;2023-07-29T14:51:20;27.00;99.90
7496;DHT22;3789;47.064;15.482;2023-07-29T14:53:50;26.90;99.90
7496;DHT22;3789;47.064;15.482;2023-07-29T14:56:19;26.90;99.90
7496;DHT22;3789;47.064;15.482;2023-07-29T14:58:51;26.90;99.90
7496;DHT22;3789;47.064;15.482;2023-07-29T15:01:26;26.80;99.90
7496;DHT22;3789;47.064;15.482;2023-07-29T15:03:58;26.80;99.90
7496;DHT22;3789;47.064;15.482;2023-07-29T15:06:27;26.60;99.90
7496;DHT22;3789;47.064;15.482;2023-07-29T15:08:56;26.50;99.90
7496;DHT22;3789;47.064;15.482;2023-07-29T15:11:26;26.60;99.90
7496;DHT22;3789;47.064;15.482;2023-07-29T15:13:56;26.70;99.90
7496;DHT22;3789;47.064;15.482;2023-07-29T15:16:26;26.70;99.90
7496;DHT22;3789;47.064;15.482;2023-07-29T15:19:06;26.80;99.90
7496;DHT22;3789;47.064;15.482;2023-07-29T15:21:33;26.80;99.90
7496;DHT22;3789;47.064;15.482;2023-07-29T15:24:01;26.70;99.90
7496;DHT22;3789;47.064;15.482;2023-07-29T15:26:31;26.60;99.90
7496;DHT22;3789;47.064;15.482;2023-07-29T15:29:00;26.60;99.90
7496;DHT22;3789;47.064;15.482;2023-07-29T15:31:35;26.70;99.90
7496;DHT22;3789;47.064;15.482;2023-07-29T15:34:08;26.70;99.90
7496;DHT22;3789;47.064;15.482;2023-07-29T15:36:45;26.70;99.90
7496;DHT22;3789;47.064;15.482;2023-07-29T15:39:16;26.70;99.90
7496;DHT22;3789;47.064;15.482;2023-07-29T15:41:52;26.80;99.90
7496;DHT22;3789;47.064;15.482;2023-07-29T15:44:21;26.70;99.90
7496;DHT22;3789;47.064;15.482;2023-07-29T15:46:49;26.70;99.90
7496;DHT22;3789;47.064;15.482;2023-07-29T15:49:24;26.60;99.90
7496;DHT22;3789;47.064;15.482;2023-07-29T15:52:02;26.40;99.90
7496;DHT22;3789;47.064;15.482;2023-07-29T15:54:31;26.40;99.90
7496;DHT22;3789;47.064;15.482;2023-07-29T15:56:59;26.40;99.90
7496;DHT22;3789;47.064;15.482;2023-07-29T15:59:27;26.40;99.90
7496;DHT22;3789;47.064;15.482;2023-07-29T16:01:57;26.40;99.90
7496;DHT22;3789;47.064;15.482;2023-07-29T16:04:27;26.40;99.90
7496;DHT22;3789;47.064;15.482;2023-07-29T16:06:57;26.50;99.90
7496;DHT22;3789;47.064;15.482;2023-07-29T16:09:25;26.30;99.90
7496;DHT22;3789;47.064;15.482;2023-07-29T16:11:57;26.20;99.90
7496;DHT22;3789;47.064;15.482;2023-07-29T16:14:30;26.30;99.90
7496;DHT22;3789;47.064;15.482;2023-07-29T16:17:07;26.20;99.90
7496;DHT22;3789;47.064;15.482;2023-07-29T16:19:55;26.20;99.90
7496;DHT22;3789;47.064;15.482;2023-07-29T16:22:31;26.20;99.90
7496;DHT22;3789;47.064;15.482;2023-07-29T16:25:03;26.10;99.90
7496;DHT22;3789;47.064;15.482;2023-07-29T16:27:37;26.10;99.90
7496;DHT22;3789;47.064;15.482;2023-07-29T16:30:14;26.00;99.90
7496;DHT22;3789;47.064;15.482;2023-07-29T16:32:44;26.10;99.90